createdAt,value
2023-05-02T08:35:19.895Z,336.25
2023-05-02T08:36:21.325Z,349.45
2023-05-02T08:37:23.090Z,326.10
2023-05-02T08:38:24.542Z,365.02
2023-05-02T08:39:26.056Z,305.40
2023-05-02T08:40:40.919Z,385.15
2023-05-02T08:41:42.876Z,333.50
2023-05-02T08:42:44.795Z,368.95
2023-05-02T08:43:46.623Z,311.50
2023-05-02T08:44:48.944Z,283.83
2023-05-02T08:45:54.223Z,277.48
2023-05-02T08:46:57.289Z,273.33
2023-05-02T08:48:00.212Z,305.55
2023-05-02T08:49:03.173Z,302.40
2023-05-02T08:50:06.442Z,304.50
2023-05-02T08:51:13.725Z,280.48
2023-05-02T08:52:17.094Z,294.88
2023-05-02T08:53:19.023Z,255.85
2023-05-02T08:54:21.308Z,291.95
2023-05-02T08:55:27.751Z,279.52
2023-05-02T08:56:29.658Z,253.52
2023-05-02T08:57:31.849Z,247.77
2023-05-02T08:58:33.868Z,220.52
2023-05-02T08:59:35.658Z,259.48
2023-05-02T09:00:42.561Z,228.95
2023-05-02T09:01:46.215Z,216.93
2023-05-02T09:03:11.707Z,165.45
2023-05-02T09:04:13.468Z,165.80
2023-05-02T09:05:20.366Z,169.55
2023-05-02T09:06:22.881Z,179.27
2023-05-02T09:07:24.310Z,192.27
2023-05-02T09:08:25.977Z,83.03
2023-05-02T09:09:29.122Z,59.35
2023-05-02T09:10:30.965Z,64.20
2023-05-02T09:11:32.403Z,51.63
2023-05-02T09:12:33.842Z,41.38
2023-05-02T09:13:43.008Z,45.53
2023-05-02T09:14:45.161Z,34.95
2023-05-02T09:15:58.295Z,37.08
2023-05-02T09:17:00.890Z,33.13
2023-05-02T09:18:02.851Z,34.30
2023-05-02T09:19:04.257Z,34.47
2023-05-02T09:20:08.494Z,37.40
2023-05-02T09:21:15.898Z,40.97
2023-05-02T09:22:23.394Z,33.92
2023-05-02T09:23:51.012Z,45.25
2023-05-02T09:24:55.526Z,37.10
2023-05-02T09:25:56.943Z,37.92
2023-05-02T09:26:58.709Z,36.03
2023-05-02T09:28:01.846Z,34.08
2023-05-02T09:29:04.767Z,36.40
2023-05-02T09:30:22.348Z,39.50
2023-05-02T09:31:54.934Z,36.90
2023-05-02T09:32:58.002Z,33.25
2023-05-02T09:34:11.699Z,35.03
2023-05-02T09:35:13.705Z,35.05
2023-05-02T09:36:16.819Z,37.60
2023-05-02T09:37:36.739Z,31.30
2023-05-02T09:38:38.781Z,29.25
2023-05-02T09:39:40.292Z,30.40
2023-05-02T09:40:54.643Z,34.30
2023-05-02T09:41:56.919Z,34.95
2023-05-02T09:42:58.434Z,33.85
2023-05-02T09:43:59.840Z,36.38
2023-05-02T09:45:01.506Z,33.25
2023-05-02T09:46:10.573Z,27.90
2023-05-02T09:47:26.448Z,31.45
2023-05-02T09:48:29.488Z,31.85
2023-05-02T09:49:39.907Z,30.98
2023-05-02T09:50:41.381Z,34.25
2023-05-02T09:51:43.965Z,32.45
2023-05-02T09:53:01.476Z,36.03
2023-05-02T09:54:03.261Z,35.60
2023-05-02T09:55:21.089Z,36.88
2023-05-02T09:56:23.910Z,52.25
2023-05-02T09:57:41.809Z,32.70
2023-05-02T09:58:43.341Z,43.03
2023-05-02T09:59:55.688Z,35.60
2023-05-02T10:00:58.358Z,35.28
2023-05-02T10:02:02.585Z,29.15
2023-05-02T10:03:06.952Z,39.25
2023-05-02T10:04:16.870Z,33.15
2023-05-02T10:05:19.914Z,39.05
2023-05-02T10:06:22.089Z,32.20
2023-05-02T10:07:23.800Z,32.80
2023-05-02T10:08:29.378Z,30.45
2023-05-02T10:09:33.037Z,27.70
2023-05-02T10:10:40.747Z,36.45
2023-05-02T10:11:43.922Z,24.90
2023-05-02T10:12:47.933Z,35.17
2023-05-02T10:13:49.491Z,31.88
2023-05-02T10:14:58.455Z,32.22
2023-05-02T10:16:05.171Z,25.58
2023-05-02T10:17:21.371Z,31.05
2023-05-02T10:18:48.197Z,24.08
2023-05-02T10:20:06.336Z,30.40
2023-05-02T10:21:12.732Z,27.42
2023-05-02T10:22:14.497Z,31.20
2023-05-02T10:23:16.991Z,28.92
2023-05-02T10:24:18.806Z,25.98
2023-05-02T10:25:20.936Z,31.45
2023-05-02T10:26:23.392Z,31.85
2023-05-02T10:27:25.432Z,29.35
2023-05-02T10:28:28.091Z,30.60
2023-05-02T10:29:31.104Z,34.63
2023-05-02T10:30:34.034Z,30.80
2023-05-02T10:31:37.710Z,37.78
2023-05-02T10:32:40.454Z,27.20
2023-05-02T10:33:41.936Z,31.55
2023-05-02T10:34:44.187Z,33.15
2023-05-02T10:35:48.809Z,32.22
2023-05-02T10:36:50.203Z,43.22
2023-05-02T10:37:52.479Z,32.83
2023-05-02T10:38:55.375Z,32.45
2023-05-02T10:39:56.794Z,37.67
2023-05-02T10:41:01.964Z,32.33
2023-05-02T10:42:06.134Z,30.58
2023-05-02T10:43:08.382Z,31.98
2023-05-02T10:44:10.980Z,33.50
2023-05-02T10:45:31.916Z,39.00
2023-05-02T10:46:38.328Z,32.67
2023-05-02T10:47:40.734Z,33.05
2023-05-02T10:48:42.189Z,37.33
2023-05-02T10:49:54.141Z,29.33
2023-05-02T10:50:58.451Z,28.92
2023-05-02T10:52:19.774Z,25.52
2023-05-02T10:53:24.579Z,35.25
2023-05-02T10:54:26.188Z,27.45
2023-05-02T10:55:27.652Z,30.17
2023-05-02T10:56:29.338Z,36.38
2023-05-02T10:57:30.965Z,28.92
2023-05-02T10:58:32.805Z,26.58
2023-05-02T10:59:43.590Z,27.67
2023-05-02T11:00:45.060Z,29.42
2023-05-02T11:01:46.473Z,34.40
2023-05-02T11:02:48.745Z,26.10
2023-05-02T11:03:55.329Z,27.20
2023-05-02T11:05:09.357Z,25.40
2023-05-02T11:06:10.822Z,28.73
2023-05-02T11:07:18.894Z,31.58
2023-05-02T11:08:21.214Z,26.45
2023-05-02T11:09:24.361Z,33.83
2023-05-02T11:10:26.811Z,38.15
2023-05-02T11:11:42.338Z,28.90
2023-05-02T11:12:48.992Z,29.27
2023-05-02T11:13:51.289Z,27.25
2023-05-02T11:14:52.729Z,31.40
2023-05-02T11:15:55.974Z,28.95
2023-05-02T11:16:57.479Z,26.85
2023-05-02T11:18:03.060Z,34.75
2023-05-02T11:19:04.527Z,28.52
2023-05-02T11:20:06.024Z,25.85
2023-05-02T11:21:31.155Z,29.13
2023-05-02T11:22:34.057Z,30.42
2023-05-02T11:23:36.890Z,27.70
2023-05-02T11:24:44.602Z,28.20
2023-05-02T11:25:47.382Z,29.65
2023-05-02T11:26:49.767Z,29.75
2023-05-02T11:27:51.168Z,29.92
2023-05-02T11:28:52.809Z,33.03
2023-05-02T11:29:59.008Z,28.35
2023-05-02T11:31:00.561Z,31.55
2023-05-02T11:32:02.104Z,33.85
2023-05-02T11:33:06.560Z,35.92
2023-05-02T11:34:08.071Z,34.38
2023-05-02T11:35:18.196Z,31.83
2023-05-02T11:36:30.498Z,35.72
2023-05-02T11:37:33.131Z,38.10
2023-05-02T11:38:39.174Z,34.65
2023-05-02T11:39:41.626Z,30.08
2023-05-02T11:40:51.130Z,29.85
2023-05-02T11:41:54.576Z,32.75
2023-05-02T11:42:57.429Z,34.30
2023-05-02T11:44:05.157Z,36.33
2023-05-02T11:45:07.025Z,36.88
2023-05-02T11:46:09.153Z,32.72
2023-05-02T11:47:10.699Z,32.47
2023-05-02T11:48:14.454Z,35.20
2023-05-02T11:49:16.389Z,30.08
2023-05-02T11:50:18.365Z,27.80
2023-05-02T11:51:23.359Z,31.63
2023-05-02T11:52:24.911Z,36.70
2023-05-02T11:53:29.329Z,36.10
2023-05-02T11:54:30.943Z,32.65
2023-05-02T11:55:32.491Z,37.08
2023-05-02T11:56:33.962Z,38.78
2023-05-02T11:57:35.678Z,37.22
2023-05-02T11:58:37.139Z,30.00
2023-05-02T11:59:54.829Z,36.22
2023-05-02T12:00:57.148Z,40.38
2023-05-02T12:01:58.485Z,32.63
2023-05-02T12:02:59.929Z,34.95
2023-05-02T12:04:07.398Z,33.25
2023-05-02T12:05:11.039Z,33.03
2023-05-02T12:06:19.006Z,31.20
2023-05-02T12:07:34.809Z,31.17
2023-05-02T12:08:36.442Z,37.20
2023-05-02T12:09:53.723Z,39.63
2023-05-02T12:10:57.055Z,35.10
2023-05-02T12:11:58.508Z,31.75
2023-05-02T12:13:04.672Z,32.10
2023-05-02T12:14:06.825Z,32.47
2023-05-02T12:15:13.075Z,33.92
2023-05-02T12:16:15.119Z,44.05
2023-05-02T12:17:17.215Z,39.05
2023-05-02T12:18:22.067Z,37.08
2023-05-02T12:19:23.859Z,41.97
2023-05-02T12:20:25.768Z,42.15
2023-05-02T12:21:30.600Z,30.48
2023-05-02T12:22:32.212Z,39.05
2023-05-02T12:23:35.304Z,37.92
2023-05-02T12:24:37.976Z,37.22
2023-05-02T12:25:43.397Z,32.00
2023-05-02T12:26:44.861Z,35.80
2023-05-02T12:27:59.684Z,38.92
2023-05-02T12:29:02.644Z,40.97
2023-05-02T12:30:05.476Z,38.63
2023-05-02T12:31:11.047Z,32.85
2023-05-02T12:32:13.670Z,38.25
2023-05-02T12:33:17.127Z,35.53
2023-05-02T12:34:38.581Z,40.65
2023-05-02T12:35:40.013Z,37.85
2023-05-02T12:36:45.370Z,37.92
2023-05-02T12:37:47.427Z,33.60
2023-05-02T12:38:54.867Z,38.20
2023-05-02T12:39:56.843Z,31.90
2023-05-02T12:40:58.370Z,34.83
2023-05-02T12:41:59.842Z,35.38
2023-05-02T12:43:04.269Z,30.17
2023-05-02T12:44:07.183Z,33.55
2023-05-02T12:45:18.577Z,42.20
2023-05-02T12:46:20.566Z,35.85
2023-05-02T12:47:22.884Z,37.85
2023-05-02T12:48:26.442Z,31.50
2023-05-02T12:49:27.935Z,29.40
2023-05-02T12:50:37.071Z,33.58
2023-05-02T12:51:39.998Z,28.30
2023-05-02T12:52:57.448Z,29.65
2023-05-02T12:53:58.961Z,28.45
2023-05-02T12:55:19.820Z,35.13
2023-05-02T12:56:21.356Z,32.10
2023-05-02T12:57:24.821Z,30.50
2023-05-02T12:58:28.480Z,29.25
2023-05-02T12:59:33.251Z,24.63
2023-05-02T13:00:38.915Z,26.80
2023-05-02T13:01:40.494Z,29.45
2023-05-02T13:02:42.116Z,24.33
2023-05-02T13:03:44.094Z,24.60
2023-05-02T13:04:45.612Z,27.70
2023-05-02T13:05:46.957Z,24.10
2023-05-02T13:06:48.380Z,27.23
2023-05-02T13:07:50.050Z,28.45
2023-05-02T13:08:51.528Z,30.35
2023-05-02T13:09:52.934Z,31.20
2023-05-02T13:10:54.770Z,30.33
2023-05-02T13:11:56.947Z,31.40
2023-05-02T13:12:58.375Z,30.10
2023-05-02T13:14:01.472Z,37.03
2023-05-02T13:15:07.137Z,34.15
2023-05-02T13:16:09.002Z,31.67
2023-05-02T13:17:10.737Z,30.10
2023-05-02T13:18:12.365Z,27.77
2023-05-02T13:19:13.848Z,26.25
2023-05-02T13:20:15.537Z,25.23
2023-05-02T13:21:16.907Z,30.70
2023-05-02T13:22:18.246Z,29.30
2023-05-02T13:23:19.689Z,30.83
2023-05-02T13:24:21.114Z,28.73
2023-05-02T13:25:22.623Z,29.02
2023-05-02T13:26:24.266Z,26.75
2023-05-02T13:27:26.084Z,29.63
2023-05-02T13:28:29.070Z,30.20
2023-05-02T13:29:31.637Z,29.73
2023-05-02T13:30:33.299Z,26.77
2023-05-02T13:31:34.782Z,30.45
2023-05-02T13:32:36.363Z,29.10
2023-05-02T13:33:37.775Z,27.45
2023-05-02T13:34:39.182Z,23.15
2023-05-02T13:35:40.942Z,27.75
2023-05-02T13:36:46.262Z,30.35
2023-05-02T13:37:47.936Z,20.27
2023-05-02T13:38:49.347Z,24.13
2023-05-02T13:39:50.699Z,21.50
2023-05-02T13:40:52.215Z,23.73
2023-05-02T13:41:53.580Z,22.60
2023-05-02T13:42:54.972Z,22.88
2023-05-02T13:43:56.746Z,20.15
2023-05-02T13:44:58.256Z,19.77
2023-05-02T13:46:00.199Z,14.70
2023-05-02T13:47:01.916Z,19.00
2023-05-02T13:48:03.631Z,26.00
2023-05-02T13:49:05.176Z,20.40
2023-05-02T13:50:07.546Z,18.88
2023-05-02T13:51:09.385Z,21.10
2023-05-02T13:52:11.062Z,20.27
2023-05-02T13:53:12.473Z,22.45
2023-05-02T13:54:14.430Z,20.30
2023-05-02T13:55:15.931Z,23.70
2023-05-02T13:56:17.619Z,19.80
2023-05-02T13:57:18.990Z,23.77
2023-05-02T13:58:21.177Z,14.40
2023-05-02T13:59:22.687Z,17.65
2023-05-02T14:00:24.082Z,19.98
2023-05-02T14:01:28.663Z,19.52
2023-05-02T14:02:30.234Z,19.33
2023-05-02T14:03:31.792Z,19.65
2023-05-02T14:04:33.431Z,18.40
2023-05-02T14:05:36.505Z,14.75
2023-05-02T14:06:38.457Z,28.77
2023-05-02T14:07:40.036Z,15.90
2023-05-02T14:08:41.425Z,14.45
2023-05-02T14:09:42.945Z,17.23
2023-05-02T14:10:44.538Z,30.65
2023-05-02T14:11:47.169Z,26.65
2023-05-02T14:12:49.229Z,28.25
2023-05-02T14:13:50.712Z,20.33
2023-05-02T14:14:52.270Z,22.90
2023-05-02T14:15:54.280Z,19.17
2023-05-02T14:16:55.937Z,20.02
2023-05-02T14:17:57.530Z,22.13
2023-05-02T14:18:58.990Z,17.00
2023-05-02T14:20:00.626Z,20.10
2023-05-02T14:21:03.274Z,21.98
2023-05-02T14:22:04.761Z,23.48
2023-05-02T14:23:07.596Z,24.23
2023-05-02T14:24:09.385Z,20.05
2023-05-02T14:25:10.851Z,16.40
2023-05-02T14:26:12.760Z,19.92
2023-05-02T14:27:18.180Z,19.23
2023-05-02T14:28:19.794Z,21.73
2023-05-02T14:29:21.201Z,16.67
2023-05-02T14:30:22.559Z,27.40
2023-05-02T14:31:24.055Z,19.60
2023-05-02T14:32:25.691Z,22.73
2023-05-02T14:33:27.598Z,15.70
2023-05-02T14:34:29.137Z,18.38
2023-05-02T14:35:30.624Z,20.98
2023-05-02T14:36:32.430Z,15.30
2023-05-02T14:37:34.156Z,24.48
2023-05-02T14:38:35.622Z,20.00
2023-05-02T14:39:37.137Z,20.42
2023-05-02T14:40:38.491Z,19.67
2023-05-02T14:41:39.911Z,19.98
2023-05-02T14:42:41.849Z,20.20
2023-05-02T14:43:43.490Z,17.25
2023-05-02T14:44:44.884Z,21.70
2023-05-02T14:45:46.245Z,18.58
2023-05-02T14:46:47.743Z,20.15
2023-05-02T14:47:50.340Z,22.70
2023-05-02T14:48:51.770Z,16.80
2023-05-02T14:49:53.113Z,19.67
2023-05-02T14:50:54.470Z,15.32
2023-05-02T14:51:57.825Z,17.05
2023-05-02T14:52:59.980Z,16.90
2023-05-02T14:54:01.466Z,14.60
2023-05-02T14:55:03.055Z,16.88
2023-05-02T14:56:04.736Z,15.63
2023-05-02T14:57:07.159Z,17.05
2023-05-02T14:58:09.987Z,19.67
2023-05-02T14:59:11.465Z,15.32
2023-05-02T15:00:13.522Z,16.42
2023-05-02T15:01:19.185Z,20.17
2023-05-02T15:02:21.744Z,14.95
2023-05-02T15:03:23.503Z,21.27
2023-05-02T15:04:27.393Z,14.98
2023-05-02T15:05:30.107Z,13.95
2023-05-02T15:06:31.653Z,13.20
2023-05-02T15:07:33.331Z,11.98
2023-05-02T15:08:34.698Z,14.05
2023-05-02T15:09:36.435Z,14.63
2023-05-02T15:10:39.041Z,12.48
2023-05-02T15:11:40.456Z,13.23
2023-05-02T15:12:43.142Z,8.73
2023-05-02T15:13:44.662Z,10.95
2023-05-02T15:14:46.002Z,11.88
2023-05-02T15:15:47.631Z,11.85
2023-05-02T15:16:49.225Z,8.68
2023-05-02T15:17:51.694Z,9.00
2023-05-02T15:18:53.126Z,13.65
2023-05-02T15:19:56.362Z,9.90
2023-05-02T15:20:59.344Z,6.93
2023-05-02T15:22:01.641Z,9.07
2023-05-02T15:23:03.806Z,9.07
2023-05-02T15:24:06.086Z,8.65
2023-05-02T15:25:08.319Z,6.88
2023-05-02T15:26:09.695Z,9.60
2023-05-02T15:27:11.851Z,6.32
2023-05-02T15:28:13.349Z,10.95
2023-05-02T15:29:14.743Z,8.63
2023-05-02T15:30:17.860Z,10.50
2023-05-02T15:31:19.746Z,8.45
2023-05-02T15:32:22.107Z,11.25
2023-05-02T15:33:23.682Z,8.50
2023-05-02T15:34:25.080Z,8.27
2023-05-02T15:35:26.461Z,9.13
2023-05-02T15:36:29.756Z,10.05
2023-05-02T15:37:31.240Z,7.70
2023-05-02T15:38:34.674Z,11.25
2023-05-02T15:39:36.076Z,6.63
2023-05-02T15:40:37.526Z,5.43
2023-05-02T15:41:38.939Z,6.45
2023-05-02T15:42:40.526Z,4.30
2023-05-02T15:43:42.204Z,8.80
2023-05-02T15:44:43.665Z,7.85
2023-05-02T15:45:45.500Z,5.32
2023-05-02T15:46:47.226Z,9.55
2023-05-02T15:47:48.963Z,4.85
2023-05-02T15:48:50.850Z,6.45
2023-05-02T15:49:53.900Z,6.03
2023-05-02T15:50:55.713Z,4.95
2023-05-02T15:51:57.184Z,9.60
2023-05-02T15:52:58.623Z,4.28
2023-05-02T15:53:59.961Z,3.88
2023-05-02T15:55:01.586Z,5.95
2023-05-02T15:56:03.118Z,5.93
2023-05-02T15:57:05.035Z,8.30
2023-05-02T15:58:06.602Z,6.35
2023-05-02T15:59:08.330Z,8.35
2023-05-02T16:00:16.546Z,11.35
2023-05-02T16:01:17.998Z,5.93
2023-05-02T16:02:19.506Z,6.90
2023-05-02T16:03:20.934Z,10.77
2023-05-02T16:04:22.437Z,6.35
2023-05-02T16:05:24.042Z,5.15
2023-05-02T16:06:25.779Z,6.35
2023-05-02T16:07:27.288Z,9.57
2023-05-02T16:08:28.773Z,11.52
2023-05-02T16:09:31.158Z,8.30
2023-05-02T16:10:32.709Z,8.13
2023-05-02T16:11:34.190Z,7.93
2023-05-02T16:12:35.594Z,6.35
2023-05-02T16:13:37.176Z,5.82
2023-05-02T16:14:38.571Z,7.15
2023-05-02T16:15:39.997Z,8.05
2023-05-02T16:16:41.429Z,7.10
2023-05-02T16:17:43.082Z,5.55
2023-05-02T16:18:44.570Z,8.73
2023-05-02T16:19:45.995Z,8.13
2023-05-02T16:20:49.669Z,5.40
2023-05-02T16:21:51.503Z,8.07
2023-05-02T16:22:52.867Z,4.88
2023-05-02T16:23:55.014Z,7.20
2023-05-02T16:24:56.548Z,10.15
2023-05-02T16:25:59.427Z,5.72
2023-05-02T16:27:01.808Z,5.55
2023-05-02T16:28:03.390Z,5.47
2023-05-02T16:29:04.883Z,5.68
2023-05-02T16:30:07.313Z,3.65
2023-05-02T16:31:11.342Z,5.70
2023-05-02T16:32:13.413Z,7.00
2023-05-02T16:33:14.913Z,5.10
2023-05-02T16:34:16.553Z,5.53
2023-05-02T16:35:19.768Z,6.68
2023-05-02T16:36:21.372Z,7.03
2023-05-02T16:37:22.822Z,10.95
2023-05-02T16:38:24.360Z,5.93
2023-05-02T16:39:26.611Z,7.32
2023-05-02T16:40:28.509Z,8.32
2023-05-02T16:41:29.970Z,5.97
2023-05-02T16:42:32.016Z,5.10
2023-05-02T16:43:33.866Z,4.15
2023-05-02T16:44:35.542Z,6.50
2023-05-02T16:45:37.225Z,8.07
2023-05-02T16:46:39.065Z,5.75
2023-05-02T16:47:41.054Z,6.18
2023-05-02T16:48:42.479Z,4.53
2023-05-02T16:49:43.909Z,6.03
2023-05-02T16:50:45.303Z,4.88
2023-05-02T16:51:51.396Z,6.38
2023-05-02T16:52:52.746Z,4.68
2023-05-02T16:53:54.346Z,7.32
2023-05-02T16:54:55.797Z,4.25
2023-05-02T16:55:57.351Z,6.38
2023-05-02T16:57:02.461Z,5.30
2023-05-02T16:58:04.047Z,8.07
2023-05-02T16:59:05.598Z,5.13
2023-05-02T17:00:10.394Z,3.90
2023-05-02T17:01:11.894Z,8.73
2023-05-02T17:02:17.222Z,4.32
2023-05-02T17:03:18.826Z,4.03
2023-05-02T17:04:21.554Z,3.72
